createdAt,value
2018-11-05T00:00:57.254Z,68.40
2018-11-05T00:03:25.473Z,65.30
2018-11-05T00:05:53.696Z,61.23
2018-11-05T00:08:21.909Z,53.70
2018-11-05T00:10:50.152Z,50.20
2018-11-05T00:13:18.387Z,53.13
2018-11-05T00:15:46.625Z,54.42
2018-11-05T00:18:14.840Z,60.67
2018-11-05T00:20:43.060Z,58.42
2018-11-05T00:23:17.760Z,61.33
2018-11-05T00:25:45.990Z,57.05
2018-11-05T00:28:14.225Z,61.13
2018-11-05T00:30:42.475Z,53.15
2018-11-05T00:33:10.699Z,57.38
2018-11-05T00:35:38.938Z,57.73
2018-11-05T00:38:07.203Z,54.35
2018-11-05T00:40:35.450Z,54.45
2018-11-05T00:43:03.664Z,59.20
2018-11-05T00:45:31.928Z,60.80
2018-11-05T00:48:00.138Z,68.17
2018-11-05T00:50:28.376Z,61.33
2018-11-05T00:52:56.590Z,59.20
2018-11-05T00:55:24.830Z,57.53
2018-11-05T00:57:53.095Z,50.37
2018-11-05T01:00:21.366Z,55.75
2018-11-05T01:02:49.613Z,55.92
2018-11-05T01:05:17.967Z,65.50
2018-11-05T01:07:46.528Z,51.80
2018-11-05T01:10:15.732Z,55.92
2018-11-05T01:12:44.035Z,59.50
2018-11-05T01:15:13.504Z,57.45
2018-11-05T01:17:41.736Z,66.07
2018-11-05T01:20:11.238Z,74.33
2018-11-05T01:22:39.704Z,63.00
2018-11-05T01:25:07.996Z,68.50
2018-11-05T01:27:36.228Z,63.48
2018-11-05T01:30:05.916Z,69.53
2018-11-05T01:32:34.180Z,67.85
2018-11-05T01:35:02.409Z,67.10
2018-11-05T01:37:30.684Z,64.50
2018-11-05T01:39:58.959Z,62.13
2018-11-05T01:42:27.251Z,65.35
2018-11-05T01:44:55.525Z,64.27
2018-11-05T01:47:23.801Z,72.17
2018-11-05T01:49:52.134Z,64.65
2018-11-05T01:52:20.472Z,74.93
2018-11-05T01:54:48.961Z,66.97
2018-11-05T01:57:17.243Z,70.42
2018-11-05T01:59:45.555Z,65.22
2018-11-05T02:02:13.889Z,71.25
2018-11-05T02:04:42.145Z,72.62
2018-11-05T02:07:10.416Z,75.20
2018-11-05T02:09:38.681Z,66.73
2018-11-05T02:12:07.174Z,74.60
2018-11-05T02:14:35.653Z,79.07
2018-11-05T02:17:03.939Z,72.25
2018-11-05T02:19:32.723Z,77.85
2018-11-05T02:22:00.984Z,80.28
2018-11-05T02:24:29.327Z,71.17
2018-11-05T02:26:57.716Z,74.50
2018-11-05T02:29:25.964Z,75.03
2018-11-05T02:31:54.278Z,85.25
2018-11-05T02:34:22.532Z,67.50
2018-11-05T02:36:50.808Z,73.70
2018-11-05T02:39:19.086Z,64.72
2018-11-05T02:41:47.364Z,71.57
2018-11-05T02:44:15.658Z,73.47
2018-11-05T02:46:43.935Z,69.25
2018-11-05T02:49:12.217Z,72.03
2018-11-05T02:51:40.515Z,73.83
2018-11-05T02:54:08.828Z,73.85
2018-11-05T02:56:37.140Z,74.92
2018-11-05T02:59:05.429Z,68.57
2018-11-05T03:01:33.726Z,66.02
2018-11-05T03:04:02.001Z,56.73
2018-11-05T03:06:30.351Z,63.83
2018-11-05T03:08:58.585Z,71.20
2018-11-05T03:11:26.881Z,67.10
2018-11-05T03:13:55.114Z,69.95
2018-11-05T03:16:23.374Z,75.87
2018-11-05T03:18:51.616Z,68.70
2018-11-05T03:21:19.866Z,64.87
2018-11-05T03:23:48.152Z,65.97
2018-11-05T03:26:16.412Z,70.40
2018-11-05T03:28:44.686Z,58.98
2018-11-05T03:31:12.935Z,56.77
2018-11-05T03:33:41.182Z,64.85
2018-11-05T03:36:09.421Z,59.98
2018-11-05T03:38:37.702Z,66.67
2018-11-05T03:41:06.232Z,61.80
2018-11-05T03:43:34.500Z,63.03
2018-11-05T03:46:02.742Z,63.53
2018-11-05T03:48:31.004Z,61.98
2018-11-05T03:50:59.252Z,57.88
2018-11-05T03:53:27.494Z,60.38
2018-11-05T03:55:55.796Z,60.92
2018-11-05T03:58:24.023Z,56.42
2018-11-05T04:00:52.258Z,51.08
2018-11-05T04:03:20.519Z,58.38
2018-11-05T04:05:48.756Z,53.87
2018-11-05T04:08:17.008Z,58.90
2018-11-05T04:10:45.321Z,69.25
2018-11-05T04:13:13.609Z,62.53
2018-11-05T04:15:41.922Z,61.70
2018-11-05T04:18:10.206Z,62.58
2018-11-05T04:20:38.468Z,61.10
2018-11-05T04:23:06.747Z,59.70
2018-11-05T04:25:35.013Z,71.20
2018-11-05T04:28:03.277Z,64.92
2018-11-05T04:30:31.532Z,65.00
2018-11-05T04:32:59.829Z,66.30
2018-11-05T04:35:28.117Z,70.35
2018-11-05T04:37:56.419Z,73.72
2018-11-05T04:40:24.689Z,73.17
2018-11-05T04:42:53.011Z,72.58
2018-11-05T04:45:21.305Z,65.03
2018-11-05T04:47:49.565Z,55.55
2018-11-05T04:50:17.843Z,55.40
2018-11-05T04:52:46.133Z,66.07
2018-11-05T04:55:14.429Z,66.62
2018-11-05T04:57:42.692Z,69.20
2018-11-05T05:00:14.901Z,71.20
2018-11-05T05:02:43.406Z,78.50
2018-11-05T05:05:12.815Z,64.17
2018-11-05T05:07:41.109Z,66.25
2018-11-05T05:10:09.982Z,64.67
2018-11-05T05:12:39.293Z,61.63
2018-11-05T05:15:07.737Z,63.80
2018-11-05T05:17:36.073Z,59.23
2018-11-05T05:20:06.173Z,53.90
2018-11-05T05:22:34.582Z,53.95
2018-11-05T05:25:02.764Z,38.17
2018-11-05T05:27:31.042Z,42.40
2018-11-05T05:29:59.332Z,40.90
2018-11-05T05:32:27.606Z,46.60
2018-11-05T05:34:55.884Z,42.23
2018-11-05T05:37:24.165Z,35.27
2018-11-05T05:39:52.445Z,42.98
2018-11-05T05:42:20.731Z,46.58
2018-11-05T05:44:49.021Z,44.03
2018-11-05T05:47:17.323Z,46.95
2018-11-05T05:49:45.617Z,42.73
2018-11-05T05:52:13.926Z,50.33
2018-11-05T05:54:42.238Z,44.38
2018-11-05T05:57:10.537Z,58.83
2018-11-05T05:59:38.828Z,50.05
2018-11-05T06:02:07.267Z,54.20
2018-11-05T06:04:35.550Z,55.27
2018-11-05T06:07:03.902Z,51.23
2018-11-05T06:09:32.148Z,48.92
2018-11-05T06:12:00.416Z,52.80
2018-11-05T06:14:28.673Z,56.90
2018-11-05T06:16:56.944Z,59.20
2018-11-05T06:19:25.196Z,70.28
2018-11-05T06:21:53.447Z,63.70
2018-11-05T06:24:21.685Z,58.20
2018-11-05T06:26:49.971Z,60.45
2018-11-05T06:29:18.232Z,62.95
2018-11-05T06:31:46.472Z,53.20
2018-11-05T06:34:14.726Z,59.03
2018-11-05T06:36:42.960Z,63.30
2018-11-05T06:39:12.557Z,58.83
2018-11-05T06:41:41.220Z,55.88
2018-11-05T06:44:09.476Z,52.23
2018-11-05T06:46:37.665Z,59.15
2018-11-05T06:49:06.242Z,61.42
2018-11-05T06:51:34.491Z,57.83
2018-11-05T06:54:03.685Z,67.12
2018-11-05T06:56:32.354Z,74.27
2018-11-05T06:59:00.657Z,70.17
2018-11-05T07:01:29.602Z,71.75
2018-11-05T07:03:57.884Z,66.25
2018-11-05T07:06:26.166Z,70.10
2018-11-05T07:08:54.412Z,72.58
2018-11-05T07:11:22.742Z,73.20
2018-11-05T07:13:50.931Z,67.62
2018-11-05T07:16:19.192Z,74.67
2018-11-05T07:18:47.562Z,82.97
2018-11-05T07:21:15.833Z,84.30
2018-11-05T07:23:44.065Z,69.72
2018-11-05T07:26:12.309Z,62.78
2018-11-05T07:28:40.532Z,64.82
2018-11-05T07:31:08.784Z,70.20
2018-11-05T07:33:37.105Z,65.00
2018-11-05T07:36:05.289Z,70.53
2018-11-05T07:38:33.561Z,69.67
2018-11-05T07:41:01.816Z,65.07
2018-11-05T07:43:30.080Z,59.03
2018-11-05T07:45:58.328Z,59.43
2018-11-05T07:48:26.566Z,56.63
2018-11-05T07:50:54.992Z,60.97
2018-11-05T07:53:23.054Z,50.73
2018-11-05T07:55:51.291Z,57.57
2018-11-05T07:58:19.577Z,45.87
2018-11-05T08:00:54.618Z,45.38
2018-11-05T08:03:22.835Z,46.03
2018-11-05T08:05:51.094Z,42.60
2018-11-05T08:08:19.414Z,46.27
2018-11-05T08:10:47.589Z,41.97
2018-11-05T08:13:15.823Z,47.37
2018-11-05T08:15:44.105Z,47.07
2018-11-05T08:18:12.382Z,47.80
2018-11-05T08:20:40.643Z,50.40
2018-11-05T08:23:08.892Z,53.10
2018-11-05T08:25:37.128Z,49.80
2018-11-05T08:28:05.614Z,48.77
2018-11-05T08:30:33.837Z,49.30
2018-11-05T08:33:02.072Z,52.03
2018-11-05T08:35:30.304Z,55.45
2018-11-05T08:37:58.552Z,73.28
2018-11-05T08:40:27.462Z,69.10
2018-11-05T08:42:56.366Z,71.10
2018-11-05T08:45:26.771Z,68.62
2018-11-05T08:47:55.033Z,65.35
2018-11-05T08:50:23.956Z,62.35
2018-11-05T08:52:52.191Z,53.20
2018-11-05T08:55:21.629Z,57.78
2018-11-05T08:57:49.976Z,55.65
2018-11-05T09:00:24.047Z,45.90
2018-11-05T09:02:52.909Z,43.58
2018-11-05T09:05:21.570Z,47.73
2018-11-05T09:07:50.705Z,50.85
2018-11-05T09:10:19.058Z,57.85
2018-11-05T09:12:47.196Z,55.80
2018-11-05T09:15:17.432Z,51.08
2018-11-05T09:17:46.154Z,60.40
2018-11-05T09:20:15.463Z,47.07
2018-11-05T09:22:43.781Z,53.13
2018-11-05T09:25:12.823Z,53.93
2018-11-05T09:27:41.128Z,49.00
2018-11-05T09:30:13.089Z,50.10
2018-11-05T09:32:41.660Z,50.90
2018-11-05T09:35:10.345Z,45.12
2018-11-05T09:37:38.604Z,52.10
2018-11-05T09:40:11.404Z,55.92
2018-11-05T09:42:40.475Z,53.17
2018-11-05T09:45:11.537Z,51.55
2018-11-05T09:47:39.792Z,50.83
2018-11-05T09:50:08.804Z,56.60
2018-11-05T09:52:37.165Z,47.75
2018-11-05T09:55:05.785Z,54.53
2018-11-05T09:57:34.040Z,48.20
2018-11-05T10:00:02.329Z,50.05
2018-11-05T10:02:36.013Z,46.48
2018-11-05T10:05:04.588Z,51.83
2018-11-05T10:07:32.673Z,43.42
2018-11-05T10:10:00.915Z,45.25
2018-11-05T10:12:29.189Z,43.98
2018-11-05T10:14:57.528Z,56.23
2018-11-05T10:17:25.792Z,46.15
2018-11-05T10:19:54.056Z,42.17
2018-11-05T10:22:22.319Z,44.53
2018-11-05T10:24:50.732Z,36.48
2018-11-05T10:27:18.900Z,44.60
2018-11-05T10:29:47.157Z,45.40
2018-11-05T10:32:15.420Z,43.92
2018-11-05T10:34:43.665Z,37.93
2018-11-05T10:37:11.940Z,47.90
2018-11-05T10:39:40.236Z,42.25
2018-11-05T10:42:08.476Z,36.60
2018-11-05T10:44:37.065Z,31.23
2018-11-05T10:47:05.344Z,34.63
2018-11-05T10:49:33.590Z,34.10
2018-11-05T10:52:01.877Z,37.70
2018-11-05T10:54:30.107Z,33.97
2018-11-05T10:56:58.365Z,35.07
2018-11-05T10:59:26.783Z,37.07
2018-11-05T11:02:58.312Z,36.93
2018-11-05T11:05:27.374Z,31.95
2018-11-05T11:07:56.684Z,33.53
2018-11-05T11:10:25.772Z,32.55
2018-11-05T11:12:54.012Z,30.57
2018-11-05T11:15:22.563Z,31.17
2018-11-05T11:17:50.744Z,27.82
2018-11-05T11:20:19.031Z,29.85
2018-11-05T11:22:47.324Z,29.15
2018-11-05T11:25:15.623Z,34.83
2018-11-05T11:27:43.945Z,34.55
2018-11-05T11:30:14.148Z,30.05
2018-11-05T11:32:42.993Z,34.05
2018-11-05T11:35:11.845Z,31.93
2018-11-05T11:37:40.400Z,33.23
2018-11-05T11:40:12.993Z,28.13
2018-11-05T11:42:43.518Z,30.52
2018-11-05T11:45:12.446Z,31.07
2018-11-05T11:47:40.745Z,36.13
2018-11-05T11:50:10.797Z,31.68
2018-11-05T11:52:39.159Z,37.60
2018-11-05T11:55:09.201Z,41.50
2018-11-05T11:57:37.853Z,33.13
2018-11-05T12:00:08.452Z,33.45
2018-11-05T12:02:36.702Z,34.43
2018-11-05T12:05:06.311Z,33.30
2018-11-05T12:07:34.503Z,30.53
2018-11-05T12:10:02.749Z,31.27
2018-11-05T12:12:30.969Z,29.40
2018-11-05T12:14:59.428Z,29.50
2018-11-05T12:17:27.499Z,30.80
2018-11-05T12:19:55.744Z,25.00
2018-11-05T12:22:23.971Z,38.10
2018-11-05T12:24:52.235Z,31.93
2018-11-05T12:27:20.473Z,31.40
2018-11-05T12:29:48.713Z,31.75
2018-11-05T12:32:16.996Z,30.23
2018-11-05T12:34:45.650Z,45.23
2018-11-05T12:37:13.914Z,28.53
2018-11-05T12:39:42.125Z,26.53
2018-11-05T12:42:10.463Z,28.00
2018-11-05T12:44:38.747Z,30.87
2018-11-05T12:47:06.972Z,31.57
2018-11-05T12:49:35.192Z,36.87
2018-11-05T12:52:03.434Z,26.67
2018-11-05T12:54:31.684Z,29.85
2018-11-05T12:56:59.914Z,31.68
2018-11-05T12:59:28.164Z,31.52
2018-11-05T13:01:59.047Z,27.65
2018-11-05T13:04:27.803Z,29.48
2018-11-05T13:06:56.415Z,30.50
2018-11-05T13:09:24.656Z,32.65
2018-11-05T13:11:52.892Z,27.43
2018-11-05T13:14:21.324Z,30.30
2018-11-05T13:16:49.601Z,28.98
2018-11-05T13:19:17.825Z,33.45
2018-11-05T13:21:46.281Z,24.40
2018-11-05T13:24:14.572Z,31.70
2018-11-05T13:26:42.799Z,28.30
2018-11-05T13:29:11.064Z,27.00
2018-11-05T13:31:39.312Z,42.23
2018-11-05T13:34:07.561Z,28.63
2018-11-05T13:36:35.898Z,27.57
2018-11-05T13:39:05.900Z,24.83
2018-11-05T13:41:34.163Z,26.85
2018-11-05T13:44:02.418Z,34.95
2018-11-05T13:46:31.046Z,26.95
2018-11-05T13:48:59.315Z,27.17
2018-11-05T13:51:27.276Z,29.23
2018-11-05T13:53:55.527Z,36.83
2018-11-05T13:56:23.835Z,34.00
2018-11-05T13:58:52.129Z,28.00
2018-11-05T14:01:20.394Z,29.85
2018-11-05T14:03:48.692Z,41.98
2018-11-05T14:06:16.992Z,27.35
2018-11-05T14:08:45.344Z,37.55
2018-11-05T14:11:13.504Z,26.77
2018-11-05T14:13:41.751Z,25.43
2018-11-05T14:16:10.015Z,35.75
2018-11-05T14:18:38.273Z,32.38
2018-11-05T14:21:06.531Z,28.32
2018-11-05T14:23:34.788Z,24.40
2018-11-05T14:26:03.125Z,30.92
2018-11-05T14:28:31.596Z,27.65
2018-11-05T14:30:59.505Z,32.03
2018-11-05T14:33:27.737Z,29.47
2018-11-05T14:35:56.004Z,34.90
2018-11-05T14:38:24.350Z,36.73
2018-11-05T14:40:52.536Z,29.80
2018-11-05T14:43:20.838Z,30.10
2018-11-05T14:45:49.059Z,29.02
2018-11-05T14:48:17.351Z,27.77
2018-11-05T14:50:45.631Z,20.30
2018-11-05T14:53:13.860Z,26.10
2018-11-05T14:55:42.111Z,26.42
2018-11-05T14:58:10.378Z,26.87
2018-11-05T15:00:38.641Z,28.45
2018-11-05T15:03:06.941Z,22.42
2018-11-05T15:05:35.149Z,19.45
2018-11-05T15:08:03.389Z,19.00
2018-11-05T15:10:31.642Z,23.27
2018-11-05T15:12:59.888Z,20.97
2018-11-05T15:15:28.088Z,22.10
2018-11-05T15:17:56.327Z,22.73
2018-11-05T15:20:24.656Z,24.55
2018-11-05T15:22:52.864Z,20.65
2018-11-05T15:25:21.582Z,27.25
2018-11-05T15:27:49.798Z,25.43
2018-11-05T15:30:20.152Z,22.60
2018-11-05T15:32:48.416Z,21.67
2018-11-05T15:35:16.645Z,24.20
2018-11-05T15:37:45.224Z,24.57
2018-11-05T15:40:15.672Z,25.08
2018-11-05T15:42:43.928Z,23.12
2018-11-05T15:45:13.326Z,26.23
2018-11-05T15:47:42.093Z,56.73
2018-11-05T15:50:12.219Z,42.10
2018-11-05T15:52:40.808Z,34.50
2018-11-05T15:55:08.801Z,35.00
2018-11-05T15:57:37.812Z,28.65
2018-11-05T16:00:13.989Z,31.23
2018-11-05T16:02:42.229Z,101.05
2018-11-05T16:05:10.498Z,29.42
2018-11-05T16:07:38.725Z,27.82
2018-11-05T16:10:08.030Z,28.95
2018-11-05T16:12:36.676Z,21.45
2018-11-05T16:15:05.447Z,23.50
2018-11-05T16:17:33.700Z,26.13
2018-11-05T16:20:01.942Z,34.10
2018-11-05T16:22:30.195Z,23.53
2018-11-05T16:24:58.495Z,24.10
2018-11-05T16:27:26.724Z,22.03
2018-11-05T16:29:55.008Z,22.82
2018-11-05T16:32:23.232Z,22.58
2018-11-05T16:34:51.545Z,26.70
2018-11-05T16:37:19.720Z,22.62
2018-11-05T16:39:48.035Z,24.98
2018-11-05T16:42:16.191Z,30.60
2018-11-05T16:44:44.456Z,33.42
2018-11-05T16:47:12.728Z,30.00
2018-11-05T16:49:40.986Z,34.80
2018-11-05T16:52:10.128Z,32.55
2018-11-05T16:54:38.415Z,31.95
2018-11-05T16:57:06.657Z,23.15
2018-11-05T16:59:35.549Z,19.40
2018-11-05T17:02:08.436Z,22.20
2018-11-05T17:04:36.788Z,30.65
2018-11-05T17:07:05.225Z,25.90
2018-11-05T17:09:33.452Z,27.75
2018-11-05T17:12:01.670Z,29.65
2018-11-05T17:14:29.908Z,30.50
2018-11-05T17:16:58.146Z,26.05
2018-11-05T17:19:26.483Z,22.22
2018-11-05T17:21:54.721Z,22.40
2018-11-05T17:24:22.970Z,18.42
2018-11-05T17:26:51.211Z,20.50
2018-11-05T17:29:19.503Z,23.20
2018-11-05T17:31:47.888Z,26.62
2018-11-05T17:34:16.112Z,23.50
2018-11-05T17:36:44.364Z,25.23
2018-11-05T17:39:13.537Z,22.85
2018-11-05T17:41:42.416Z,22.40
2018-11-05T17:44:12.028Z,27.65
2018-11-05T17:46:40.333Z,25.62
2018-11-05T17:49:10.326Z,38.63
2018-11-05T17:51:38.793Z,19.40
2018-11-05T17:54:07.077Z,20.88
2018-11-05T17:56:35.345Z,21.73
2018-11-05T17:59:04.036Z,26.07
2018-11-05T18:01:32.277Z,30.17
2018-11-05T18:04:00.786Z,31.50
2018-11-05T18:06:29.260Z,25.10
2018-11-05T18:08:57.617Z,26.07
2018-11-05T18:11:25.740Z,20.23
2018-11-05T18:13:53.993Z,19.80
2018-11-05T18:16:22.215Z,22.85
2018-11-05T18:18:50.523Z,21.75
2018-11-05T18:21:18.784Z,34.53
2018-11-05T18:23:47.068Z,54.70
2018-11-05T18:26:15.588Z,48.55
2018-11-05T18:28:44.080Z,24.35
2018-11-05T18:31:12.347Z,27.90
2018-11-05T18:33:40.705Z,31.52
2018-11-05T18:36:08.915Z,42.37
2018-11-05T18:38:37.154Z,35.93
2018-11-05T18:41:05.772Z,18.47
2018-11-05T18:43:34.064Z,18.95
2018-11-05T18:46:02.301Z,28.02
2018-11-05T18:48:30.653Z,27.30
2018-11-05T18:50:58.934Z,24.67
2018-11-05T18:53:27.170Z,27.80
2018-11-05T18:55:55.409Z,25.92
2018-11-05T18:58:23.637Z,28.90
2018-11-05T19:00:51.871Z,25.85
2018-11-05T19:03:20.197Z,27.45
2018-11-05T19:05:48.360Z,25.57
2018-11-05T19:08:16.568Z,20.77
2018-11-05T19:10:44.821Z,23.80
2018-11-05T19:13:13.057Z,25.08
2018-11-05T19:15:41.329Z,25.80
2018-11-05T19:18:09.538Z,26.05
2018-11-05T19:20:37.768Z,21.95
2018-11-05T19:23:06.296Z,20.48
2018-11-05T19:25:34.290Z,17.85
2018-11-05T19:28:02.501Z,15.35
2018-11-05T19:30:30.821Z,15.35
2018-11-05T19:32:58.981Z,17.48
2018-11-05T19:35:27.205Z,18.67
2018-11-05T19:37:55.455Z,26.45
2018-11-05T19:40:23.667Z,25.55
2018-11-05T19:42:51.948Z,15.75
2018-11-05T19:45:21.594Z,14.33
2018-11-05T19:47:49.841Z,13.60
2018-11-05T19:50:19.265Z,17.07
2018-11-05T19:52:48.536Z,12.95
2018-11-05T19:55:17.355Z,15.68
2018-11-05T19:57:46.341Z,15.68
2018-11-05T20:00:23.298Z,17.10
2018-11-05T20:02:51.701Z,14.80
2018-11-05T20:05:20.105Z,21.70
2018-11-05T20:07:48.879Z,20.70
2018-11-05T20:10:17.160Z,21.27
2018-11-05T20:12:45.954Z,25.23
2018-11-05T20:15:14.455Z,17.55
2018-11-05T20:17:43.631Z,13.48
2018-11-05T20:20:13.235Z,13.85
2018-11-05T20:22:41.498Z,17.70
2018-11-05T20:25:10.091Z,21.10
2018-11-05T20:27:39.080Z,21.57
2018-11-05T20:30:09.453Z,23.57
2018-11-05T20:32:38.278Z,15.30
2018-11-05T20:35:06.638Z,12.75
2018-11-05T20:37:34.965Z,13.20
2018-11-05T20:40:03.438Z,29.57
2018-11-05T20:42:31.541Z,31.45
2018-11-05T20:44:59.809Z,35.78
2018-11-05T20:47:28.061Z,33.05
2018-11-05T20:49:56.313Z,35.73
2018-11-05T20:52:24.593Z,33.13
2018-11-05T20:54:52.851Z,19.70
2018-11-05T20:57:21.120Z,28.70
2018-11-05T20:59:49.400Z,14.15
2018-11-05T21:02:17.667Z,16.17
2018-11-05T21:04:45.982Z,17.07
2018-11-05T21:07:14.264Z,29.27
2018-11-05T21:09:42.572Z,23.65
2018-11-05T21:12:10.837Z,23.25
2018-11-05T21:14:39.207Z,15.30
2018-11-05T21:17:07.388Z,33.02
2018-11-05T21:19:35.661Z,12.43
2018-11-05T21:22:03.934Z,12.47
2018-11-05T21:24:32.156Z,15.72
2018-11-05T21:27:00.555Z,16.73
2018-11-05T21:29:28.716Z,23.43
2018-11-05T21:31:56.990Z,31.97
2018-11-05T21:34:25.273Z,15.20
2018-11-05T21:36:53.541Z,27.77
2018-11-05T21:39:21.817Z,16.05
2018-11-05T21:41:50.068Z,16.48
2018-11-05T21:44:18.346Z,13.58
2018-11-05T21:46:53.261Z,15.43
2018-11-05T21:49:21.584Z,19.13
2018-11-05T21:51:49.874Z,19.87
2018-11-05T21:54:18.188Z,18.60
2018-11-05T21:56:46.418Z,20.82
2018-11-05T21:59:14.666Z,20.15
2018-11-05T22:01:42.921Z,23.92
2018-11-05T22:04:12.014Z,22.60
2018-11-05T22:06:40.281Z,21.33
2018-11-05T22:09:08.993Z,21.62
2018-11-05T22:11:37.230Z,21.55
2018-11-05T22:14:05.601Z,25.77
2018-11-05T22:16:33.843Z,33.23
2018-11-05T22:19:02.127Z,24.63
2018-11-05T22:21:30.368Z,22.60
2018-11-05T22:23:58.584Z,23.57
2018-11-05T22:26:26.825Z,24.67
2018-11-05T22:28:55.065Z,20.53
2018-11-05T22:31:23.301Z,15.40
2018-11-05T22:33:51.539Z,17.33
2018-11-05T22:36:19.776Z,19.40
2018-11-05T22:38:48.002Z,23.53
2018-11-05T22:41:16.248Z,25.37
2018-11-05T22:43:44.471Z,18.80
2018-11-05T22:46:12.703Z,18.93
2018-11-05T22:48:40.928Z,17.73
2018-11-05T22:51:09.164Z,18.03
2018-11-05T22:53:37.370Z,19.53
2018-11-05T22:56:06.258Z,25.87
2018-11-05T22:58:34.484Z,28.85
2018-11-05T23:01:05.798Z,38.55
2018-11-05T23:03:34.021Z,29.87
2018-11-05T23:06:02.263Z,34.20
2018-11-05T23:08:30.505Z,38.58
2018-11-05T23:10:59.098Z,22.32
2018-11-05T23:13:27.308Z,45.00
2018-11-05T23:15:55.556Z,33.60
2018-11-05T23:18:23.801Z,36.00
2018-11-05T23:20:52.064Z,29.35
2018-11-05T23:23:20.301Z,27.60
2018-11-05T23:25:48.525Z,43.92
2018-11-05T23:28:16.746Z,27.93
2018-11-05T23:30:44.973Z,44.20
2018-11-05T23:33:13.268Z,24.65
2018-11-05T23:35:41.510Z,20.77
2018-11-05T23:38:09.769Z,28.02
2018-11-05T23:40:38.082Z,36.08
2018-11-05T23:43:06.331Z,33.33
2018-11-05T23:45:34.608Z,28.00
2018-11-05T23:48:02.952Z,35.85
2018-11-05T23:50:31.188Z,38.75
2018-11-05T23:52:59.419Z,37.35
2018-11-05T23:55:27.673Z,31.40
2018-11-05T23:57:55.916Z,28.40
